Time;durP1;ratioP1;P1;durP2;ratioP2;P2;SDS_P1;SDS_P2;PMS_P1;PMS_P2;Temp;Humidity;BMP_temperature;BMP_pressure;BME280_temperature;BME280_humidity;BME280_pressure;Samples;Min_cycle;Max_cycle;Signal;HPM_P1;HPM_P2
2023/03/14 00:00:12;;;;;;;7.50;2.40;;;;;;;11.76;85.97;98893.38;5056089;28;20062;-67
2023/03/14 00:02:38;;;;;;;8.25;2.38;;;;;;;11.83;82.07;98886.22;5055821;28;20025;-67
2023/03/14 00:05:06;;;;;;;9.00;2.30;;;;;;;11.81;81.32;98900.34;5055744;28;20025;-67
2023/03/14 00:07:36;;;;;;;11.05;2.60;;;;;;;11.82;80.85;98894.13;5055414;28;20040;-66
2023/03/14 00:10:04;;;;;;;9.80;2.55;;;;;;;11.77;80.93;98899.53;5055760;28;20033;-67
2023/03/14 00:12:30;;;;;;;8.93;2.42;;;;;;;11.76;80.40;98893.38;5055265;28;20119;-66
2023/03/14 00:14:55;;;;;;;11.32;2.58;;;;;;;11.72;80.17;98880.28;5055487;28;20076;-66
2023/03/14 00:17:21;;;;;;;7.57;2.10;;;;;;;11.72;77.92;98889.06;5055459;28;20131;-66
2023/03/14 00:19:46;;;;;;;5.70;2.05;;;;;;;11.69;78.16;98893.56;5055407;28;20501;-67
2023/03/14 00:22:11;;;;;;;6.47;2.03;;;;;;;11.67;76.89;98898.91;5055258;28;20025;-66
2023/03/14 00:24:37;;;;;;;11.02;2.70;;;;;;;11.65;76.55;98899.84;5055373;28;20029;-67
2023/03/14 00:27:02;;;;;;;10.30;2.15;;;;;;;11.61;75.77;98903.50;5055168;28;20018;-67
2023/03/14 00:29:28;;;;;;;7.13;2.30;;;;;;;11.53;75.37;98914.28;5055252;28;20094;-67
2023/03/14 00:31:53;;;;;;;7.05;2.10;;;;;;;11.47;75.97;98917.91;5037395;28;20032;-67
2023/03/14 00:34:18;;;;;;;10.43;2.05;;;;;;;11.39;76.02;98919.91;5055052;28;20067;-67
2023/03/14 00:36:45;;;;;;;6.55;1.98;;;;;;;11.36;75.13;98914.66;5054960;28;20025;-67
2023/03/14 00:39:10;;;;;;;5.45;1.95;;;;;;;11.35;75.14;98919.97;5055088;28;20033;-67
2023/03/14 00:41:35;;;;;;;7.85;2.25;;;;;;;11.33;75.90;98927.94;5055201;28;20029;-67
2023/03/14 00:44:01;;;;;;;7.50;2.00;;;;;;;11.31;76.52;98916.56;5054944;28;20025;-67
2023/03/14 00:46:26;;;;;;;7.68;2.15;;;;;;;11.29;76.29;98918.34;5055132;28;20063;-67
2023/03/14 00:48:51;;;;;;;9.93;2.30;;;;;;;11.29;76.55;98926.28;5054851;28;20029;-67
2023/03/14 00:51:17;;;;;;;10.63;2.17;;;;;;;11.33;75.29;98935.88;5054869;28;20033;-67
2023/03/14 00:53:43;;;;;;;8.60;2.28;;;;;;;11.32;75.77;98928.88;5054828;28;20501;-67
2023/03/14 00:56:10;;;;;;;6.30;1.83;;;;;;;11.33;75.12;98927.09;5054907;28;20044;-67
2023/03/14 00:58:36;;;;;;;4.40;2.03;;;;;;;11.28;75.53;98927.19;5054938;28;20021;-67
2023/03/14 01:01:09;;;;;;;8.55;2.13;;;;;;;11.23;76.03;98924.66;5054615;28;20062;-67
2023/03/14 01:03:35;;;;;;;9.05;2.20;;;;;;;11.27;75.37;98912.25;5054561;28;20025;-66
2023/03/14 01:06:28;;;;;;;11.30;2.40;;;;;;;11.27;75.55;98917.53;5036481;28;20383;-67
2023/03/14 01:08:54;;;;;;;6.65;2.10;;;;;;;11.26;75.08;98915.75;5050238;28;20097;-67
2023/03/14 01:11:25;;;;;;;6.13;2.00;;;;;;;11.22;75.32;98914.09;5054324;28;20033;-67
2023/03/14 01:13:51;;;;;;;9.40;2.20;;;;;;;11.18;75.92;98915.09;5054258;28;20037;-67
2023/03/14 01:16:19;;;;;;;10.68;2.25;;;;;;;11.19;75.17;98915.06;5036737;28;20478;-67
2023/03/14 01:18:46;;;;;;;7.45;2.30;;;;;;;11.16;75.62;98906.31;5054535;28;20470;-66
2023/03/14 01:21:19;;;;;;;7.32;2.00;;;;;;;11.14;76.38;98908.16;5055420;28;20048;-67
2023/03/14 01:23:46;;;;;;;8.50;2.08;;;;;;;11.12;76.03;98907.28;5055559;28;20040;-67
2023/03/14 01:26:14;;;;;;;7.63;2.25;;;;;;;11.04;76.21;98902.16;5054935;28;20386;-67
2023/03/14 01:28:40;;;;;;;8.93;2.10;;;;;;;11.00;76.46;98901.38;5054675;28;20025;-66
2023/03/14 01:31:07;;;;;;;5.68;2.00;;;;;;;10.95;76.55;98892.69;5054102;28;20048;-67
2023/03/14 01:33:33;;;;;;;10.35;2.28;;;;;;;10.96;76.12;98906.75;5054294;28;20035;-67
2023/03/14 01:35:59;;;;;;;5.90;2.20;;;;;;;10.97;76.45;98890.03;5053716;28;20029;-67
2023/03/14 01:38:24;;;;;;;5.20;1.85;;;;;;;10.95;76.25;98892.69;5053978;28;20052;-67
2023/03/14 01:40:50;;;;;;;6.30;1.92;;;;;;;10.97;75.74;98896.16;5036073;28;20059;-67
2023/03/14 01:43:18;;;;;;;7.68;1.90;;;;;;;10.95;75.98;98879.47;5053850;28;20474;-67
2023/03/14 01:46:05;;;;;;;8.70;2.25;;;;;;;10.98;76.03;98886.47;5053949;28;20021;-67
2023/03/14 01:48:42;;;;;;;7.60;1.98;;;;;;;10.91;76.90;98883.06;5053713;28;20431;-67
2023/03/14 01:51:17;;;;;;;9.30;2.30;;;;;;;10.90;76.83;98875.19;5035905;28;20120;-67
2023/03/14 01:53:44;;;;;;;7.65;1.77;;;;;;;10.93;76.60;98865.44;5053917;28;20021;-67
2023/03/14 01:56:13;;;;;;;6.20;2.00;;;;;;;10.89;77.89;98861.13;5053471;28;20033;-66
2023/03/14 01:58:40;;;;;;;5.80;1.92;;;;;;;10.87;77.63;98864.69;5053564;28;20028;-67
2023/03/14 02:01:08;;;;;;;8.13;1.95;;;;;;;10.85;77.75;98854.16;5053783;28;20033;-66
2023/03/14 02:03:43;;;;;;;7.90;2.10;;;;;;;10.88;77.72;98858.53;5053511;28;20479;-67
2023/03/14 02:06:11;;;;;;;6.10;2.35;;;;;;;10.91;77.34;98880.44;5053497;28;20029;-66
2023/03/14 02:08:39;;;;;;;8.55;2.05;;;;;;;10.85;77.75;98859.44;5053641;28;20100;-66
2023/03/14 02:11:07;;;;;;;7.45;2.40;;;;;;;10.84;78.45;98855.06;5053251;28;20104;-67
2023/03/14 02:13:32;;;;;;;10.20;2.50;;;;;;;10.87;78.01;98867.31;5053090;28;20045;-66
2023/03/14 02:15:58;;;;;;;7.38;2.17;;;;;;;10.86;78.53;98855.03;5053296;28;20095;-67
2023/03/14 02:18:23;;;;;;;6.20;2.20;;;;;;;10.82;79.08;98858.63;5035378;28;20463;-67
2023/03/14 02:21:51;;;;;;;9.50;2.40;;;;;;;10.86;78.49;98857.66;5035482;28;20090;-67
2023/03/14 02:24:51;;;;;;;8.10;2.20;;;;;;;10.81;79.31;98849.84;4951013;29;20043;-67
2023/03/14 02:27:19;;;;;;;10.50;2.75;;;;;;;10.78;79.59;98852.53;5045798;28;20041;-67
2023/03/14 02:30:14;;;;;;;6.15;2.00;;;;;;;10.81;79.41;98859.53;5053212;28;20025;-67
2023/03/14 02:32:44;;;;;;;9.07;2.50;;;;;;;10.77;80.33;98850.81;5053016;28;20056;-67
2023/03/14 02:35:14;;;;;;;9.73;2.40;;;;;;;10.75;80.38;98842.94;5053270;28;20121;-67
2023/03/14 02:38:06;;;;;;;12.63;2.20;;;;;;;10.73;80.25;98835.94;5051941;28;20040;-67
2023/03/14 02:40:31;;;;;;;10.68;2.42;;;;;;;10.72;80.19;98834.22;5052424;28;20083;-67
2023/03/14 02:42:56;;;;;;;10.23;2.45;;;;;;;10.68;80.49;98833.41;5052786;28;20458;-66
2023/03/14 02:45:22;;;;;;;10.07;2.63;;;;;;;10.67;80.39;98836.94;5053009;28;20025;-67
2023/03/14 02:47:54;;;;;;;9.93;2.40;;;;;;;10.62;81.33;98841.47;5052825;28;20025;-67
2023/03/14 02:50:21;;;;;;;;;;;;;;;10.68;80.29;98843.09;5053585;28;20037;-67
2023/03/14 02:52:46;;;;;;;8.38;2.30;;;;;;;10.62;81.10;98835.28;5052873;28;19925;-67
2023/03/14 02:55:12;;;;;;;13.02;2.50;;;;;;;10.64;81.02;98836.13;5052787;28;20355;-67
2023/03/14 02:57:37;;;;;;;12.18;2.55;;;;;;;10.63;81.13;98834.41;5052677;28;20117;-67
2023/03/14 03:00:07;;;;;;;8.35;2.58;;;;;;;10.60;81.77;98834.47;5053044;28;20075;-67
2023/03/14 03:02:32;;;;;;;15.10;2.72;;;;;;;10.62;81.25;98852.03;5052950;28;20113;-67
2023/03/14 03:04:58;;;;;;;11.32;2.60;;;;;;;10.61;81.69;98850.28;5034829;28;20389;-67
2023/03/14 03:07:24;;;;;;;7.50;2.30;;;;;;;10.60;81.75;98840.63;5052749;28;20492;-67
2023/03/14 03:09:49;;;;;;;9.10;2.40;;;;;;;10.63;81.38;98840.56;5052766;28;20036;-67
2023/03/14 03:12:15;;;;;;;11.30;2.40;;;;;;;10.63;81.84;98843.19;5052280;28;20100;-68
2023/03/14 03:14:40;;;;;;;13.27;2.83;;;;;;;10.62;81.94;98844.13;5052721;28;20029;-67
2023/03/14 03:17:06;;;;;;;10.27;2.55;;;;;;;10.61;82.06;98847.63;5052824;28;20024;-67
2023/03/14 03:19:32;;;;;;;8.43;2.33;;;;;;;10.61;82.18;98846.75;5052584;28;20025;-67
2023/03/14 03:21:58;;;;;;;8.57;1.98;;;;;;;10.61;81.71;98838.84;5052639;28;20048;-67
2023/03/14 03:24:25;;;;;;;11.10;2.30;;;;;;;10.62;81.61;98838.84;5052660;28;20379;-67
2023/03/14 03:26:50;;;;;;;8.10;2.20;;;;;;;10.61;81.84;98829.13;5052432;28;20432;-67
2023/03/14 03:29:16;;;;;;;8.80;2.22;;;;;;;10.60;81.69;98824.78;5034654;28;20025;-67
2023/03/14 03:31:41;;;;;;;9.95;2.25;;;;;;;10.59;81.88;98820.41;5052710;28;20025;-67
2023/03/14 03:34:07;;;;;;;10.57;2.40;;;;;;;10.60;81.86;98826.53;5052670;28;20037;-67
2023/03/14 03:36:32;;;;;;;10.25;2.20;;;;;;;10.61;81.73;98828.28;5052405;28;20378;-67
2023/03/14 03:38:58;;;;;;;13.23;2.30;;;;;;;10.61;81.54;98828.28;5052627;28;20070;-67
2023/03/14 03:41:23;;;;;;;10.10;2.40;;;;;;;10.60;81.98;98829.19;5034751;28;20025;-67
2023/03/14 03:43:49;;;;;;;7.82;2.15;;;;;;;10.57;81.41;98823.97;5052356;28;20425;-67
2023/03/14 03:46:14;;;;;;;8.20;2.03;;;;;;;10.57;81.64;98838.03;5052292;28;20026;-67
2023/03/14 03:48:40;;;;;;;8.45;2.15;;;;;;;10.56;81.85;98819.59;5054643;28;20108;-67
2023/03/14 03:51:06;;;;;;;6.97;2.10;;;;;;;10.55;81.76;98809.94;5056219;28;20033;-67
2023/03/14 03:53:31;;;;;;;7.22;1.88;;;;;;;10.55;81.43;98825.78;5055912;28;20025;-67
2023/03/14 03:55:57;;;;;;;6.60;2.40;;;;;;;10.55;81.96;98815.22;5037951;28;20021;-67
2023/03/14 03:58:22;;;;;;;5.95;1.95;;;;;;;10.54;81.49;98814.34;5037999;28;20025;-67
2023/03/14 04:00:47;;;;;;;11.50;2.40;;;;;;;10.52;81.70;98798.53;5055866;28;20417;-67
2023/03/14 04:03:13;;;;;;;8.73;2.08;;;;;;;10.52;82.47;98817.00;5055937;28;20147;-67
2023/03/14 04:05:38;;;;;;;7.95;2.28;;;;;;;10.49;82.80;98822.38;5055715;28;20086;-67
2023/03/14 04:08:04;;;;;;;5.95;2.10;;;;;;;10.45;84.25;98812.78;5055598;28;20029;-67
2023/03/14 04:10:30;;;;;;;7.20;1.98;;;;;;;10.38;84.54;98807.66;5037658;28;20485;-67
2023/03/14 04:12:55;;;;;;;9.18;2.20;;;;;;;10.24;85.37;98807.91;5055042;28;20409;-67
2023/03/14 04:15:21;;;;;;;8.77;2.00;;;;;;;10.18;85.51;98808.88;5055502;28;20029;-67
2023/03/14 04:17:46;;;;;;;7.40;1.88;;;;;;;10.16;84.73;98812.47;5055432;28;20025;-67
2023/03/14 04:20:12;;;;;;;14.07;2.80;;;;;;;10.11;85.16;98802.03;5055443;28;20032;-67
2023/03/14 04:22:38;;;;;;;7.53;2.20;;;;;;;10.09;85.09;98800.31;5055327;28;20521;-67
2023/03/14 04:25:04;;;;;;;10.55;2.55;;;;;;;10.08;85.36;98803.84;5055421;28;20025;-68
2023/03/14 04:27:30;;;;;;;10.80;2.20;;;;;;;10.12;84.49;98809.03;5055173;28;20397;-68
2023/03/14 04:29:55;;;;;;;8.05;2.10;;;;;;;10.11;85.46;98803.78;5055494;28;20022;-67
2023/03/14 04:32:20;;;;;;;7.15;2.15;;;;;;;10.09;85.90;98811.72;5037440;28;20033;-67
2023/03/14 04:34:46;;;;;;;4.97;2.03;;;;;;;10.09;86.75;98802.94;5055090;28;20036;-67
2023/03/14 04:37:11;;;;;;;7.90;2.30;;;;;;;10.04;87.10;98798.63;5055191;28;20116;-67
2023/03/14 04:39:37;;;;;;;4.18;1.77;;;;;;;10.09;87.69;98792.38;5055140;28;20029;-68
2023/03/14 04:42:02;;;;;;;6.05;2.10;;;;;;;10.03;88.28;98803.94;5054969;28;20025;-68
2023/03/14 04:44:28;;;;;;;8.60;2.08;;;;;;;10.02;89.05;98795.16;5055017;28;20071;-67
2023/03/14 04:46:53;;;;;;;4.13;1.50;;;;;;;10.00;89.77;98799.59;5054850;28;20108;-67
2023/03/14 04:49:18;;;;;;;5.32;1.75;;;;;;;9.97;90.25;98793.50;5054909;28;20029;-67
2023/03/14 04:51:44;;;;;;;6.90;1.85;;;;;;;9.95;90.46;98790.91;5054837;28;20037;-67
2023/03/14 04:54:09;;;;;;;4.70;1.60;;;;;;;9.95;91.10;98790.91;5055119;28;20025;-67
2023/03/14 04:56:35;;;;;;;5.65;1.92;;;;;;;9.92;92.70;98798.84;5036662;28;20158;-67
2023/03/14 04:59:00;;;;;;;5.65;1.90;;;;;;;9.88;93.93;98804.22;5053801;28;20482;-67
2023/03/14 05:01:25;;;;;;;6.88;1.70;;;;;;;9.81;95.45;98800.84;5054555;28;20028;-67
2023/03/14 05:03:51;;;;;;;4.35;1.70;;;;;;;9.76;96.11;98805.31;5054554;28;20029;-67
2023/03/14 05:06:16;;;;;;;6.65;1.80;;;;;;;9.72;97.41;98798.38;5054228;28;20393;-67
2023/03/14 05:08:41;;;;;;;4.47;1.80;;;;;;;9.63;98.80;98806.44;5054461;28;20108;-67
2023/03/14 05:11:10;;;;;;;9.18;2.05;;;;;;;9.60;99.44;98801.25;5036609;28;20029;-67
2023/03/14 05:13:35;;;;;;;5.97;1.90;;;;;;;9.59;98.99;98812.69;5054084;28;20122;-66
2023/03/14 05:16:09;;;;;;;6.53;2.10;;;;;;;9.56;99.57;98804.84;5054287;28;20489;-67
2023/03/14 05:18:35;;;;;;;4.53;2.10;;;;;;;9.55;100.00;98793.44;5054410;28;20494;-66
2023/03/14 05:21:00;;;;;;;4.00;2.00;;;;;;;9.53;100.00;98811.03;5054336;28;20091;-67
2023/03/14 05:23:26;;;;;;;5.40;2.60;;;;;;;9.51;100.00;98804.94;5054295;28;20041;-67
2023/03/14 05:25:51;;;;;;;3.42;1.95;;;;;;;9.49;100.00;98806.72;5054129;28;20025;-67
2023/03/14 05:28:17;;;;;;;4.53;2.13;;;;;;;9.46;100.00;98797.09;5036302;28;20023;-67
2023/03/14 05:30:42;;;;;;;5.43;2.00;;;;;;;9.49;100.00;98796.16;5054334;28;20108;-67
2023/03/14 05:33:07;;;;;;;4.18;2.33;;;;;;;9.45;100.00;98794.47;5053948;28;20029;-67
2023/03/14 05:35:33;;;;;;;4.70;2.10;;;;;;;9.46;100.00;98796.19;5053973;28;20044;-67
2023/03/14 05:37:58;;;;;;;4.28;2.10;;;;;;;9.46;100.00;98790.94;5053777;28;20032;-67
2023/03/14 05:40:24;;;;;;;5.13;2.50;;;;;;;9.46;100.00;98777.75;5053969;28;20017;-67
2023/03/14 05:42:49;;;;;;;4.88;2.20;;;;;;;9.45;100.00;98779.53;5053738;28;20063;-67
2023/03/14 05:45:14;;;;;;;5.68;2.50;;;;;;;9.42;100.00;98778.69;5035912;28;20375;-67
2023/03/14 05:47:40;;;;;;;4.30;2.30;;;;;;;9.44;100.00;98776.94;5053980;28;20025;-66
2023/03/14 05:50:06;;;;;;;4.88;2.40;;;;;;;9.40;100.00;98781.38;5053736;28;20029;-67
2023/03/14 05:52:31;;;;;;;6.57;2.70;;;;;;;9.41;100.00;98780.47;5053860;28;20025;-67
2023/03/14 05:54:56;;;;;;;5.43;2.40;;;;;;;9.43;100.00;98775.19;5053557;28;20017;-67
2023/03/14 05:57:22;;;;;;;6.55;2.60;;;;;;;9.45;100.00;98776.88;5053364;28;20477;-67
2023/03/14 05:59:47;;;;;;;6.65;2.63;;;;;;;9.44;100.00;98776.94;5035670;28;20506;-67
2023/03/14 06:02:13;;;;;;;9.98;2.70;;;;;;;9.43;100.00;98770.78;5053508;28;20048;-67
2023/03/14 06:04:38;;;;;;;5.85;2.58;;;;;;;9.44;100.00;98775.16;5053765;28;20051;-67
2023/03/14 06:07:05;;;;;;;7.88;2.55;;;;;;;9.43;100.00;98764.66;5053080;28;20039;-67
2023/03/14 06:09:30;;;;;;;9.25;2.95;;;;;;;9.42;100.00;98761.16;5053297;28;20037;-67
2023/03/14 06:11:56;;;;;;;6.70;2.78;;;;;;;9.39;100.00;98761.19;5053019;28;20021;-67
2023/03/14 06:14:22;;;;;;;7.28;3.05;;;;;;;9.40;100.00;98764.69;5053182;28;20532;-67
2023/03/14 06:16:50;;;;;;;6.18;2.80;;;;;;;9.41;100.00;98771.69;5053182;28;20033;-66
2023/03/14 06:19:16;;;;;;;5.30;2.90;;;;;;;9.42;100.00;98768.16;5053146;28;20036;-67
2023/03/14 06:21:42;;;;;;;5.35;2.55;;;;;;;9.42;100.00;98769.06;5053239;28;20025;-67
2023/03/14 06:24:08;;;;;;;6.55;2.70;;;;;;;9.39;100.00;98769.09;5053379;28;20109;-68
2023/03/14 06:26:34;;;;;;;6.07;2.90;;;;;;;9.41;100.00;98769.06;5052974;28;20017;-68
2023/03/14 06:29:03;;;;;;;6.18;2.83;;;;;;;9.41;100.00;98769.06;5035279;28;20059;-68
2023/03/14 06:31:30;;;;;;;6.68;3.00;;;;;;;9.41;100.00;98774.34;5053065;28;20036;-68
2023/03/14 06:33:55;;;;;;;8.13;3.08;;;;;;;9.44;100.00;98776.94;5053219;28;20025;-68
2023/03/14 06:36:21;;;;;;;7.20;3.00;;;;;;;9.47;100.00;98777.75;5052853;28;20032;-68
2023/03/14 06:38:46;;;;;;;6.18;2.92;;;;;;;9.49;100.00;98781.22;5035267;28;20568;-68
2023/03/14 06:41:11;;;;;;;5.20;2.90;;;;;;;9.54;100.00;98779.34;5052949;28;20532;-68
2023/03/14 06:43:37;;;;;;;8.57;2.92;;;;;;;9.57;100.00;98783.72;5053004;28;20060;-68
2023/03/14 06:46:02;;;;;;;6.15;3.10;;;;;;;9.62;100.00;98783.63;5052751;28;20021;-68
2023/03/14 06:48:28;;;;;;;5.90;3.00;;;;;;;9.65;100.00;98786.22;5052831;28;20059;-68
2023/03/14 06:50:53;;;;;;;7.45;3.00;;;;;;;9.66;100.00;98791.44;5052736;28;20029;-69
2023/03/14 06:53:19;;;;;;;6.95;3.33;;;;;;;9.68;100.00;98787.03;5052762;28;20033;-69
2023/03/14 06:55:45;;;;;;;6.78;3.63;;;;;;;9.69;100.00;98788.75;5052901;28;20055;-68
2023/03/14 06:58:11;;;;;;;7.20;3.60;;;;;;;9.74;100.00;98791.31;5053116;28;20386;-69
2023/03/14 07:00:36;;;;;;;6.22;3.30;;;;;;;9.81;100.00;98790.31;5035238;28;20033;-69
2023/03/14 07:03:01;;;;;;;6.60;3.15;;;;;;;9.85;100.00;98792.00;5052717;28;20035;-69
2023/03/14 07:05:27;;;;;;;7.45;3.22;;;;;;;9.92;100.00;98801.50;5052743;28;20033;-69
2023/03/14 07:07:52;;;;;;;6.80;3.55;;;;;;;9.99;100.00;98797.84;5052624;28;20025;-69
2023/03/14 07:10:18;;;;;;;5.15;3.30;;;;;;;10.02;100.00;98799.53;5052626;28;20351;-70
2023/03/14 07:12:43;;;;;;;8.52;3.28;;;;;;;10.02;100.00;98797.81;5052528;28;20485;-68
2023/03/14 07:15:09;;;;;;;6.68;3.30;;;;;;;10.03;100.00;98811.84;5052868;28;20033;-69
2023/03/14 07:17:35;;;;;;;6.97;3.30;;;;;;;10.01;100.00;98813.63;5052737;28;20037;-69
2023/03/14 07:20:00;;;;;;;9.63;3.80;;;;;;;10.00;100.00;98820.69;5052667;28;20482;-69
2023/03/14 07:22:26;;;;;;;7.65;3.53;;;;;;;9.96;100.00;98826.94;5054286;28;20390;-69
2023/03/14 07:24:51;;;;;;;8.10;3.63;;;;;;;9.97;100.00;98827.78;5058893;28;20441;-69
2023/03/14 07:27:17;;;;;;;11.00;3.60;;;;;;;9.95;100.00;98833.09;5041476;28;20025;-69
2023/03/14 07:29:42;;;;;;;8.18;3.25;;;;;;;9.94;100.00;98902.59;5057526;28;20064;-69
2023/03/14 07:32:08;;;;;;;3.55;1.80;;;;;;;9.67;100.00;98903.94;5056541;28;20060;-72
2023/03/14 07:34:33;;;;;;;2.60;1.80;;;;;;;9.50;100.00;98933.22;5056396;28;20025;-73
2023/03/14 07:36:59;;;;;;;2.92;1.75;;;;;;;9.31;99.89;98939.69;5056153;28;20082;-72
2023/03/14 07:39:24;;;;;;;1.75;1.40;;;;;;;9.17;99.97;98953.06;5038636;28;20044;-73
2023/03/14 07:41:50;;;;;;;2.88;1.50;;;;;;;9.06;100.00;98956.72;5056203;28;20033;-70
2023/03/14 07:44:15;;;;;;;5.68;2.22;;;;;;;9.01;100.00;98968.19;5056293;28;20025;-71
2023/03/14 07:46:40;;;;;;;2.25;1.70;;;;;;;8.91;100.00;98973.63;5055993;28;20473;-69
2023/03/14 07:49:06;;;;;;;3.08;1.50;;;;;;;8.86;100.00;98978.91;5056246;28;20079;-69
2023/03/14 07:51:32;;;;;;;2.55;1.38;;;;;;;8.84;99.92;98983.34;5056083;28;20021;-70
2023/03/14 07:53:57;;;;;;;2.22;1.40;;;;;;;8.74;99.41;98989.63;5055991;28;20541;-70
2023/03/14 07:56:22;;;;;;;2.35;1.48;;;;;;;8.71;99.56;99018.63;5055841;28;20048;-71
2023/03/14 07:58:48;;;;;;;2.60;1.38;;;;;;;8.65;99.52;99021.28;5056151;28;20029;-69
2023/03/14 08:01:13;;;;;;;2.72;1.40;;;;;;;8.57;99.54;99023.16;5055732;28;20021;-70
2023/03/14 08:03:39;;;;;;;1.90;1.30;;;;;;;8.58;99.40;99027.53;5055756;28;20057;-69
2023/03/14 08:06:07;;;;;;;3.10;1.50;;;;;;;8.52;99.88;99039.88;5055515;28;20421;-70
2023/03/14 08:08:33;;;;;;;3.38;1.60;;;;;;;8.50;100.00;99035.50;5055623;28;20025;-69
2023/03/14 08:11:04;;;;;;;2.50;1.58;;;;;;;8.53;100.00;99046.00;5055613;28;20108;-69
2023/03/14 08:13:29;;;;;;;2.33;1.75;;;;;;;8.57;100.00;99052.13;5055098;28;20052;-69
2023/03/14 08:15:55;;;;;;;1.95;1.70;;;;;;;8.59;100.00;99063.50;5055693;28;20033;-70
2023/03/14 08:18:20;;;;;;;3.17;1.90;;;;;;;8.63;100.00;99066.09;5055332;28;20372;-69
2023/03/14 08:20:45;;;;;;;2.95;1.98;;;;;;;8.62;100.00;99085.41;5055324;28;20060;-69
2023/03/14 08:23:11;;;;;;;3.92;2.30;;;;;;;8.63;100.00;99089.78;5055346;28;20032;-69
2023/03/14 08:25:37;;;;;;;6.07;2.28;;;;;;;8.60;100.00;99100.34;5055263;28;20028;-69
2023/03/14 08:28:04;;;;;;;2.15;1.92;;;;;;;8.59;100.00;99122.28;5055073;28;20025;-70
2023/03/14 08:30:30;;;;;;;4.20;1.80;;;;;;;8.62;100.00;99131.94;5055085;28;20033;-69
2023/03/14 08:32:58;;;;;;;3.50;1.80;;;;;;;8.56;99.31;99138.09;5055185;28;20033;-69
2023/03/14 08:35:27;;;;;;;2.88;1.75;;;;;;;8.58;98.69;99146.88;5055360;28;20029;-69
2023/03/14 08:37:52;;;;;;;2.70;1.50;;;;;;;8.50;98.07;99149.56;5055029;28;20025;-68
2023/03/14 08:40:18;;;;;;;2.63;1.60;;;;;;;8.49;97.68;99161.00;5054994;28;20031;-69
2023/03/14 08:42:44;;;;;;;5.38;1.80;;;;;;;8.46;97.67;99166.25;5054884;28;20025;-68
2023/03/14 08:45:12;;;;;;;6.43;1.90;;;;;;;8.54;97.53;99168.84;5054976;28;20021;-69
2023/03/14 08:47:37;;;;;;;4.22;1.80;;;;;;;8.60;98.00;99179.31;5054541;28;20021;-68
2023/03/14 08:50:04;;;;;;;3.60;1.60;;;;;;;8.60;97.14;99189.84;5054873;28;20108;-67
2023/03/14 08:52:30;;;;;;;2.05;1.42;;;;;;;8.64;97.40;99194.19;5055009;28;20036;-68
2023/03/14 08:54:56;;;;;;;5.18;1.50;;;;;;;8.68;97.56;99210.84;5054746;28;20025;-67
2023/03/14 08:57:21;;;;;;;4.60;1.77;;;;;;;8.72;97.54;99218.72;5054716;28;20033;-68
2023/03/14 08:59:47;;;;;;;7.18;2.10;;;;;;;8.78;97.20;99215.19;5054674;28;20025;-67
2023/03/14 09:02:13;;;;;;;4.15;1.95;;;;;;;8.83;96.50;99226.53;5054589;28;20494;-67
2023/03/14 09:04:38;;;;;;;4.60;2.20;;;;;;;8.87;96.22;99241.44;5054499;28;20066;-68
2023/03/14 09:07:04;;;;;;;5.18;2.22;;;;;;;8.90;96.02;99251.06;5054077;28;20029;-69
2023/03/14 09:09:30;;;;;;;4.53;1.83;;;;;;;8.89;95.92;99257.22;5054819;28;20033;-68
2023/03/14 09:11:56;;;;;;;4.70;2.03;;;;;;;8.90;95.90;99261.59;5036746;28;20086;-68
2023/03/14 09:14:22;;;;;;;5.05;2.08;;;;;;;8.94;96.72;99266.81;5054291;28;20049;-68
2023/03/14 09:16:48;;;;;;;7.13;2.58;;;;;;;8.98;96.76;99273.81;5054640;28;20029;-68
2023/03/14 09:19:13;;;;;;;5.90;2.30;;;;;;;9.05;96.13;99286.97;5054446;28;20025;-68
2023/03/14 09:21:38;;;;;;;7.28;2.33;;;;;;;8.96;95.71;99291.41;5054523;28;20049;-69
2023/03/14 09:24:05;;;;;;;3.38;1.75;;;;;;;8.82;95.84;99314.31;5054364;28;20079;-70
2023/03/14 09:26:30;;;;;;;5.22;1.80;;;;;;;8.71;96.36;99321.44;5036774;28;20116;-69
2023/03/14 09:28:56;;;;;;;4.15;1.67;;;;;;;8.61;95.38;99333.78;5054028;28;20436;-70
2023/03/14 09:31:21;;;;;;;3.30;1.67;;;;;;;8.52;96.64;99336.44;5054224;28;20039;-70
2023/03/14 09:33:47;;;;;;;3.47;1.50;;;;;;;8.47;96.17;99352.28;5054057;28;20432;-70
2023/03/14 09:36:12;;;;;;;3.55;1.70;;;;;;;8.39;95.91;99350.56;5054096;28;20115;-70
2023/03/14 09:38:37;;;;;;;2.00;1.50;;;;;;;8.28;95.57;99375.13;5063440;28;20032;-70
2023/03/14 09:41:14;;;;;;;3.65;1.50;;;;;;;8.24;97.09;99391.81;5059453;28;20029;-72
2023/03/14 09:43:42;;;;;;;4.45;1.48;;;;;;;8.08;96.30;99411.16;5053807;28;20056;-73
2023/03/14 09:46:11;;;;;;;3.30;1.35;;;;;;;7.97;94.50;99418.22;5053256;28;20060;-73
2023/03/14 09:48:36;;;;;;;1.27;1.17;;;;;;;7.89;95.53;99434.00;5053810;28;20029;-72
2023/03/14 09:51:12;;;;;;;2.70;1.38;;;;;;;7.89;95.99;99460.28;5053870;28;20553;-72
2023/03/14 09:53:46;;;;;;;4.18;1.42;;;;;;;7.80;93.07;99469.94;5053746;28;20492;-71
2023/03/14 09:56:25;;;;;;;1.77;1.20;;;;;;;7.78;92.33;99483.06;5053873;28;20048;-71
2023/03/14 09:58:58;;;;;;;2.45;1.08;;;;;;;7.69;89.40;99488.34;5053466;28;20029;-71
2023/03/14 10:01:29;;;;;;;3.33;1.52;;;;;;;7.86;90.44;99506.75;5053520;28;20039;-69
2023/03/14 10:03:56;;;;;;;2.05;1.38;;;;;;;8.07;90.80;99516.41;5053429;28;20017;-69
2023/03/14 10:06:26;;;;;;;7.97;1.52;;;;;;;8.14;88.93;99529.56;5053151;28;20025;-69
2023/03/14 10:08:52;;;;;;;4.38;1.60;;;;;;;8.31;87.85;99532.16;5053636;28;20029;-69
2023/03/14 10:11:19;;;;;;;5.05;1.60;;;;;;;8.48;86.81;99543.59;5053588;28;20033;-69
2023/03/14 10:14:05;;;;;;;5.07;1.98;;;;;;;8.59;86.17;99559.34;5053051;28;20076;-70
2023/03/14 10:16:34;;;;;;;4.78;1.58;;;;;;;8.55;84.62;99576.03;5053246;28;20025;-69
2023/03/14 10:19:05;;;;;;;7.40;1.92;;;;;;;8.56;84.03;99579.53;5053187;28;20501;-68
2023/03/14 10:21:37;;;;;;;6.47;1.98;;;;;;;8.50;84.47;99593.59;5053156;28;20025;-67
2023/03/14 10:24:26;;;;;;;7.75;2.03;;;;;;;8.46;83.54;99618.16;5053427;28;20021;-69
2023/03/14 10:26:58;;;;;;;7.60;2.00;;;;;;;8.40;83.90;99620.81;5052962;28;20025;-69
2023/03/14 10:29:23;;;;;;;8.32;1.85;;;;;;;8.38;82.57;99625.19;5052958;28;20052;-69
2023/03/14 10:32:00;;;;;;;7.40;1.90;;;;;;;8.35;82.14;99652.34;5053045;28;20052;-69
2023/03/14 10:34:44;;;;;;;5.30;1.65;;;;;;;8.27;82.14;99657.63;5053064;28;20450;-67
2023/03/14 10:37:21;;;;;;;8.20;2.00;;;;;;;8.17;81.61;99674.25;5052872;28;20063;-68
2023/03/14 10:39:50;;;;;;;6.30;2.05;;;;;;;8.13;82.53;99687.41;5052781;28;20033;-67
2023/03/14 10:42:21;;;;;;;8.23;2.17;;;;;;;8.12;83.56;99691.78;5052816;28;20029;-68
2023/03/14 10:44:54;;;;;;;5.60;2.17;;;;;;;8.19;84.66;99698.81;5052936;28;20027;-68
2023/03/14 10:47:22;;;;;;;9.68;2.40;;;;;;;8.27;84.27;99697.09;5052833;28;20035;-68
2023/03/14 10:49:48;;;;;;;14.65;3.33;;;;;;;8.31;81.12;99713.75;5052882;28;20450;-68
2023/03/14 10:52:22;;;;;;;12.23;2.67;;;;;;;8.37;81.17;99719.06;5053063;28;20052;-69
2023/03/14 10:54:53;;;;;;;9.35;2.45;;;;;;;8.50;82.37;99731.34;5053055;28;20043;-68
2023/03/14 10:57:20;;;;;;;11.50;3.10;;;;;;;8.55;80.21;99741.88;5053059;28;20025;-67
2023/03/14 10:59:45;;;;;;;11.18;3.08;;;;;;;8.68;82.34;99745.41;5056971;28;20525;-68
2023/03/14 11:02:32;;;;;;;13.90;2.70;;;;;;;8.79;80.15;99756.84;5057152;28;20049;-67
2023/03/14 11:05:26;;;;;;;12.93;2.70;;;;;;;8.96;79.77;99775.28;5057841;28;20495;-67
2023/03/14 11:07:59;;;;;;;11.18;2.28;;;;;;;9.01;76.99;99779.69;5063252;28;20021;-68
2023/03/14 11:10:32;;;;;;;16.90;2.70;;;;;;;8.90;74.64;99788.44;5060102;28;20482;-68
2023/03/14 11:13:15;;;;;;;9.45;2.60;;;;;;;8.75;75.49;99800.75;5056454;28;20052;-68
2023/03/14 11:16:00;;;;;;;16.55;2.78;;;;;;;8.88;75.26;99811.28;5045534;28;20474;-67
2023/03/14 11:18:51;;;;;;;19.83;3.22;;;;;;;9.01;75.77;99819.19;5058734;28;20033;-67
2023/03/14 11:21:45;;;;;;;18.30;2.95;;;;;;;9.16;77.03;99826.22;5057027;28;20024;-67
2023/03/14 11:24:10;;;;;;;13.88;2.83;;;;;;;9.17;74.73;99832.41;5056606;28;20025;-67
2023/03/14 11:26:45;;;;;;;12.00;2.47;;;;;;;9.11;73.77;99851.69;5056251;28;20017;-67
2023/03/14 11:29:22;;;;;;;14.45;2.65;;;;;;;9.01;77.92;99865.75;5056420;28;20033;-68
2023/03/14 11:31:47;;;;;;;10.65;2.30;;;;;;;8.72;80.01;99882.38;5056329;28;20025;-67
2023/03/14 11:34:25;;;;;;;12.63;2.80;;;;;;;8.29;79.35;99884.81;5056561;28;20036;-67
2023/03/14 11:37:16;;;;;;;15.05;3.00;;;;;;;8.06;80.44;99891.72;5056157;28;20033;-68